Time;durP1;ratioP1;P1;durP2;ratioP2;P2;SDS_P1;SDS_P2;PMS_P1;PMS_P2;Temp;Humidity;BMP_temperature;BMP_pressure;BME280_temperature;BME280_humidity;BME280_pressure;Samples;Min_cycle;Max_cycle;Signal;HPM_P1;HPM_P2
2022/03/09 00:02:20;;;;;;;7.97;3.55;;;3.70;75.00;;;;;;4973103;28;20476;-84
2022/03/09 00:04:45;;;;;;;8.93;3.83;;;4.30;75.30;;;;;;4970439;28;20469;-85
2022/03/09 00:07:11;;;;;;;6.68;3.58;;;4.30;76.10;;;;;;4969478;28;20121;-86
2022/03/09 00:09:37;;;;;;;11.98;4.13;;;3.60;76.10;;;;;;4978080;28;20054;-85
2022/03/09 00:12:03;;;;;;;12.10;4.10;;;3.60;76.60;;;;;;4987651;28;20140;-85
2022/03/09 00:14:30;;;;;;;9.02;4.05;;;3.50;76.90;;;;;;4956344;28;20766;-85
2022/03/09 00:16:55;;;;;;;8.45;4.03;;;3.50;77.40;;;;;;4970376;28;20054;-85
2022/03/09 00:19:21;;;;;;;9.10;4.00;;;3.50;77.90;;;;;;4969930;28;20047;-85
2022/03/09 00:21:47;;;;;;;8.52;3.92;;;3.40;78.20;;;;;;4969836;28;20488;-85
2022/03/09 00:24:14;;;;;;;7.80;3.53;;;3.40;79.30;;;;;;4969712;28;20062;-83
2022/03/09 00:26:41;;;;;;;9.23;4.22;;;3.30;79.10;;;;;;4969058;28;20098;-84
2022/03/09 00:29:07;;;;;;;8.38;3.67;;;3.30;80.10;;;;;;4970149;28;20101;-85
2022/03/09 00:31:32;;;;;;;13.35;4.38;;;3.20;80.80;;;;;;4972121;28;20039;-85
2022/03/09 00:33:58;;;;;;;10.05;4.15;;;3.20;81.50;;;;;;4973508;28;20038;-85
2022/03/09 00:36:24;;;;;;;7.65;4.00;;;3.10;82.60;;;;;;4973252;28;20046;-85
2022/03/09 00:38:50;;;;;;;6.80;3.63;;;3.10;82.90;;;;;;4972466;28;20082;-85
2022/03/09 00:41:15;;;;;;;8.18;3.95;;;3.10;83.30;;;;;;4972440;28;20146;-83
2022/03/09 00:43:42;;;;;;;9.18;4.13;;;3.00;84.10;;;;;;4971588;28;20043;-84
2022/03/09 00:46:08;;;;;;;8.85;3.72;;;2.90;85.00;;;;;;4986664;28;20061;-85
2022/03/09 00:48:33;;;;;;;9.15;4.20;;;2.80;86.10;;;;;;4992280;28;20042;-84
2022/03/09 00:50:59;;;;;;;8.02;4.20;;;2.80;86.10;;;;;;4972816;28;20058;-86
2022/03/09 00:53:25;;;;;;;8.68;4.05;;;3.40;86.70;;;;;;4971881;28;20050;-85
2022/03/09 00:55:51;;;;;;;9.93;4.20;;;2.80;86.90;;;;;;4973423;28;20054;-84
2022/03/09 00:58:17;;;;;;;8.50;4.10;;;2.80;88.10;;;;;;4949528;28;20042;-83
2022/03/09 01:00:43;;;;;;;10.00;4.65;;;2.30;87.90;;;;;;4992540;28;20057;-85
2022/03/09 01:03:08;;;;;;;8.35;4.13;;;2.70;88.80;;;;;;4976594;28;20488;-85
2022/03/09 01:05:34;;;;;;;9.07;4.32;;;3.10;89.70;;;;;;4976528;28;20097;-84
2022/03/09 01:08:00;;;;;;;9.02;4.85;;;2.90;90.30;;;;;;4992218;28;20104;-84
2022/03/09 01:10:26;;;;;;;12.57;5.32;;;2.70;90.20;;;;;;4976257;28;20111;-85
2022/03/09 01:12:51;;;;;;;9.40;4.35;;;2.60;90.50;;;;;;4974147;28;20566;-85
2022/03/09 01:15:17;;;;;;;9.40;4.60;;;2.60;90.70;;;;;;4956676;28;20047;-85
2022/03/09 01:17:43;;;;;;;8.45;4.80;;;2.50;91.10;;;;;;4972781;28;20057;-85
2022/03/09 01:20:09;;;;;;;11.55;4.97;;;2.50;91.30;;;;;;4976333;28;20055;-86
2022/03/09 01:22:35;;;;;;;10.23;4.28;;;2.50;91.30;;;;;;4971723;28;20049;-83
2022/03/09 01:25:00;;;;;;;8.75;4.30;;;2.50;91.60;;;;;;4980873;28;20058;-85
2022/03/09 01:27:26;;;;;;;10.82;4.50;;;2.50;91.80;;;;;;4957694;28;20062;-85
2022/03/09 01:29:52;;;;;;;10.65;4.70;;;3.20;92.30;;;;;;4989810;28;20077;-84
2022/03/09 01:32:21;;;;;;;10.40;4.75;;;2.40;92.30;;;;;;4972893;28;20101;-85
2022/03/09 01:34:48;;;;;;;11.93;5.15;;;2.50;92.70;;;;;;4957016;28;20055;-85
2022/03/09 01:37:13;;;;;;;10.70;4.75;;;2.60;92.80;;;;;;4971909;28;20496;-85
2022/03/09 01:39:39;;;;;;;10.65;4.97;;;2.80;93.20;;;;;;4975290;28;20069;-85
2022/03/09 01:42:05;;;;;;;11.75;4.85;;;2.30;93.70;;;;;;4956277;28;20074;-86
2022/03/09 01:44:31;;;;;;;9.65;4.80;;;2.30;93.90;;;;;;4974938;28;20042;-85
2022/03/09 01:46:57;;;;;;;10.10;4.97;;;2.20;94.70;;;;;;4975831;28;20373;-85
2022/03/09 01:49:23;;;;;;;9.15;4.38;;;2.10;94.80;;;;;;4983292;28;20042;-82
2022/03/09 01:51:51;;;;;;;9.05;4.85;;;2.10;95.40;;;;;;4991536;28;20090;-85
2022/03/09 01:54:17;;;;;;;9.48;4.82;;;2.30;95.60;;;;;;4991524;28;20049;-85
2022/03/09 01:56:43;;;;;;;12.25;5.07;;;2.00;96.00;;;;;;4990565;28;20035;-84
2022/03/09 01:59:10;;;;;;;;;;;2.30;96.30;;;;;;4992569;28;20054;-84
2022/03/09 02:01:37;;;;;;;11.63;5.32;;;1.90;97.90;;;;;;4978072;28;19922;-84
2022/03/09 02:04:04;;;;;;;12.35;5.03;;;2.60;96.40;;;;;;4972520;28;20050;-86
2022/03/09 02:06:32;;;;;;;10.20;4.97;;;1.90;96.50;;;;;;4974189;28;20511;-85
2022/03/09 02:11:44;;;;;;;11.18;4.97;;;1.90;97.10;;;;;;4990203;28;20053;-85
2022/03/09 02:14:29;;;;;;;;;;;1.90;97.50;;;;;;4991751;28;20046;-85
2022/03/09 02:16:56;;;;;;;9.80;4.55;;;1.90;99.90;;;;;;4991262;28;19921;-85
2022/03/09 02:19:22;;;;;;;12.93;5.30;;;2.60;97.90;;;;;;4972337;28;20061;-86
2022/03/09 02:21:50;;;;;;;11.23;5.10;;;2.70;97.60;;;;;;4971345;28;20137;-86
2022/03/09 02:24:16;;;;;;;14.25;5.03;;;2.70;97.70;;;;;;4974209;28;20130;-86
2022/03/09 02:26:42;;;;;;;12.00;5.15;;;1.90;97.60;;;;;;4958098;28;20128;-87
2022/03/09 02:29:08;;;;;;;9.27;4.70;;;1.90;98.30;;;;;;4991467;28;20051;-85
2022/03/09 02:31:34;;;;;;;10.75;5.18;;;1.80;98.20;;;;;;4988603;28;20046;-84
2022/03/09 02:34:00;;;;;;;15.05;5.10;;;1.80;98.80;;;;;;4971716;28;20125;-84
2022/03/09 02:36:26;;;;;;;11.15;5.53;;;1.80;98.60;;;;;;4971365;28;20134;-83
2022/03/09 02:38:51;;;;;;;10.50;4.97;;;2.40;98.70;;;;;;4971015;28;20476;-85
2022/03/09 02:41:17;;;;;;;13.68;6.05;;;1.90;98.70;;;;;;4971097;28;20129;-85
2022/03/09 02:43:43;;;;;;;15.45;5.43;;;1.80;98.90;;;;;;4967842;28;20407;-84
2022/03/09 02:46:08;;;;;;;11.35;5.15;;;1.70;99.00;;;;;;4955119;28;20051;-86
2022/03/09 02:48:34;;;;;;;12.55;5.72;;;1.80;99.20;;;;;;4971309;28;20059;-86
2022/03/09 02:51:00;;;;;;;11.27;5.35;;;1.70;99.30;;;;;;4971302;28;20142;-86
2022/03/09 02:53:26;;;;;;;11.20;5.43;;;1.70;99.30;;;;;;4954368;28;20055;-83
2022/03/09 02:55:51;;;;;;;11.75;4.93;;;1.70;99.60;;;;;;4968307;28;20054;-86
2022/03/09 02:58:17;;;;;;;11.88;4.88;;;1.60;99.60;;;;;;4990204;28;20057;-87
2022/03/09 03:00:43;;;;;;;10.75;4.82;;;1.70;99.90;;;;;;4960244;28;20116;-85
2022/03/09 03:03:08;;;;;;;12.43;5.15;;;1.70;99.90;;;;;;4971550;28;20055;-86
2022/03/09 03:05:34;;;;;;;11.98;5.22;;;1.80;99.90;;;;;;4955044;28;20097;-85
2022/03/09 03:08:00;;;;;;;12.13;5.85;;;1.60;99.90;;;;;;4954579;28;20059;-85
2022/03/09 03:10:25;;;;;;;11.07;5.22;;;2.30;99.90;;;;;;4971347;28;20042;-85
2022/03/09 03:12:51;;;;;;;10.60;4.82;;;1.50;99.90;;;;;;4967326;28;20133;-86
2022/03/09 03:15:17;;;;;;;12.80;4.82;;;1.70;99.90;;;;;;4989883;28;20050;-85
2022/03/09 03:17:42;;;;;;;12.32;5.53;;;1.50;99.90;;;;;;4968696;28;20055;-86
2022/03/09 03:20:08;;;;;;;10.98;5.15;;;1.50;99.90;;;;;;4961260;28;20188;-86
2022/03/09 03:22:34;;;;;;;;;;;1.40;99.90;;;;;;4989815;28;20057;-87
2022/03/09 03:25:00;;;;;;;13.75;5.50;;;1.40;99.90;;;;;;4973759;28;19925;-86
2022/03/09 03:27:25;;;;;;;12.55;5.25;;;1.40;99.90;;;;;;4958426;28;20051;-87
2022/03/09 03:29:51;;;;;;;9.65;5.05;;;1.40;99.90;;;;;;4973621;28;20054;-90
2022/03/09 03:32:17;;;;;;;12.25;5.28;;;1.30;99.90;;;;;;4974005;28;20049;-85
2022/03/09 03:34:42;;;;;;;11.50;5.80;;;2.10;99.90;;;;;;4973450;28;20459;-85
2022/03/09 03:37:08;;;;;;;12.88;5.30;;;1.30;99.90;;;;;;4973321;28;20142;-85
2022/03/09 03:39:34;;;;;;;11.23;5.82;;;1.30;99.90;;;;;;4984216;28;20046;-85
2022/03/09 03:42:00;;;;;;;;;;;1.20;99.90;;;;;;4976162;28;20046;-85
2022/03/09 03:44:25;;;;;;;11.20;5.38;;;1.80;99.90;;;;;;4970347;28;19949;-83
2022/03/09 03:46:51;;;;;;;11.38;5.30;;;1.10;99.90;;;;;;4978620;28;20042;-86
2022/03/09 03:49:17;;;;;;;11.23;5.30;;;1.40;99.90;;;;;;4954791;28;20058;-86
2022/03/09 03:51:43;;;;;;;13.45;6.13;;;1.00;99.90;;;;;;4953667;28;20061;-86
2022/03/09 03:54:10;;;;;;;10.77;5.28;;;0.90;99.90;;;;;;4974038;28;20063;-83
2022/03/09 03:56:36;;;;;;;10.65;5.22;;;0.90;99.90;;;;;;4969456;28;20051;-86
2022/03/09 03:59:01;;;;;;;;;;;0.90;99.90;;;;;;4970670;28;20512;-84
2022/03/09 04:01:27;;;;;;;12.68;5.13;;;1.70;99.90;;;;;;4954155;28;19926;-86
2022/03/09 04:03:53;;;;;;;14.95;5.75;;;1.70;99.90;;;;;;4970232;28;20086;-86
2022/03/09 04:06:18;;;;;;;13.07;5.95;;;0.80;99.90;;;;;;4976535;28;20046;-85
2022/03/09 04:08:44;;;;;;;12.80;6.10;;;1.00;99.90;;;;;;4993074;28;20058;-85
2022/03/09 04:11:10;;;;;;;11.52;5.53;;;0.70;99.90;;;;;;4993290;28;20042;-86
2022/03/09 04:13:35;;;;;;;12.48;5.50;;;0.70;99.90;;;;;;4976133;28;20051;-84
2022/03/09 04:16:01;;;;;;;17.48;6.53;;;0.70;99.90;;;;;;4957898;28;20138;-85
2022/03/09 04:18:27;;;;;;;12.73;5.75;;;0.60;99.90;;;;;;4958506;28;20051;-85
2022/03/09 04:20:52;;;;;;;12.98;5.53;;;0.60;99.90;;;;;;4973922;28;20073;-85
2022/03/09 04:23:18;;;;;;;27.20;7.05;;;0.90;99.90;;;;;;4984208;28;20062;-84
2022/03/09 04:25:44;;;;;;;13.95;5.97;;;0.60;99.90;;;;;;4993312;28;20054;-84
2022/03/09 04:28:09;;;;;;;14.80;5.70;;;0.60;99.90;;;;;;4976409;28;20046;-85
2022/03/09 04:30:35;;;;;;;13.10;5.55;;;0.60;99.90;;;;;;4971912;28;20089;-85
2022/03/09 04:33:01;;;;;;;12.50;5.57;;;1.00;99.90;;;;;;4962218;28;20505;-84
2022/03/09 04:35:27;;;;;;;13.63;6.03;;;0.50;99.90;;;;;;4977399;28;20054;-86
2022/03/09 04:37:52;;;;;;;13.68;6.20;;;0.60;99.90;;;;;;4979842;28;20054;-85
2022/03/09 04:40:18;;;;;;;11.52;5.57;;;0.60;99.90;;;;;;4974128;28;20059;-86
2022/03/09 04:42:44;;;;;;;13.65;6.28;;;0.60;99.90;;;;;;4972688;28;20050;-85
2022/03/09 04:45:10;;;;;;;11.63;5.40;;;1.60;99.90;;;;;;4973118;28;20046;-85
2022/03/09 04:47:35;;;;;;;11.80;5.68;;;0.70;99.90;;;;;;4973495;28;20049;-83
2022/03/09 04:50:02;;;;;;;12.40;5.65;;;0.70;99.90;;;;;;4973775;28;20058;-85
2022/03/09 04:52:28;;;;;;;12.05;5.60;;;0.70;99.90;;;;;;4973790;28;20466;-86
2022/03/09 04:54:55;;;;;;;11.57;5.72;;;0.70;99.90;;;;;;4992257;28;20066;-85
2022/03/09 04:57:21;;;;;;;12.82;5.68;;;0.70;99.90;;;;;;4975010;28;20143;-86
2022/03/09 04:59:46;;;;;;;12.07;5.70;;;1.00;99.90;;;;;;4991049;28;20058;-86
2022/03/09 05:02:12;;;;;;;12.60;6.15;;;0.70;99.90;;;;;;4960816;28;20065;-85
2022/03/09 05:04:38;;;;;;;14.25;5.57;;;0.70;99.90;;;;;;4976404;28;20052;-85
2022/03/09 05:07:04;;;;;;;12.98;5.55;;;0.70;99.90;;;;;;4980873;28;20118;-85
2022/03/09 05:09:30;;;;;;;13.43;5.53;;;0.60;99.90;;;;;;4986061;28;20137;-85
2022/03/09 05:11:55;;;;;;;12.05;5.85;;;0.60;99.90;;;;;;4991293;28;20328;-85
2022/03/09 05:14:21;;;;;;;12.43;5.32;;;1.20;99.90;;;;;;4958906;28;20467;-84
2022/03/09 05:16:47;;;;;;;12.15;5.95;;;0.60;99.90;;;;;;4992302;28;20060;-86
2022/03/09 05:19:12;;;;;;;13.32;5.75;;;0.60;99.90;;;;;;4984446;28;20484;-85
2022/03/09 05:21:38;;;;;;;13.00;5.55;;;0.50;99.90;;;;;;4982478;28;20050;-83
2022/03/09 05:24:04;;;;;;;11.48;5.38;;;0.50;99.90;;;;;;4992372;28;20484;-85
2022/03/09 05:26:30;;;;;;;12.30;6.18;;;0.50;99.90;;;;;;4992359;28;20096;-85
2022/03/09 05:28:57;;;;;;;13.77;6.68;;;1.30;99.90;;;;;;4989820;28;20189;-86
2022/03/09 05:31:23;;;;;;;14.38;6.28;;;0.40;99.90;;;;;;4972302;28;20073;-85
2022/03/09 05:33:49;;;;;;;;;;;0.80;99.90;;;;;;4956210;28;20047;-86
2022/03/09 05:36:15;;;;;;;11.70;5.60;;;0.40;99.90;;;;;;4972820;28;19922;-86
2022/03/09 05:38:40;;;;;;;14.77;5.72;;;0.70;99.90;;;;;;4955905;28;20115;-84
2022/03/09 05:41:06;;;;;;;15.98;6.35;;;0.40;99.90;;;;;;4973003;28;20528;-85
2022/03/09 05:43:32;;;;;;;11.13;5.47;;;0.70;99.90;;;;;;4957938;28;20108;-86
2022/03/09 05:45:58;;;;;;;14.35;6.13;;;0.40;99.90;;;;;;4991132;28;20058;-85
2022/03/09 05:48:23;;;;;;;11.88;5.55;;;0.40;99.90;;;;;;4975351;28;20054;-85
2022/03/09 05:50:49;;;;;;;12.98;6.25;;;0.40;99.90;;;;;;4974049;28;20093;-84
2022/03/09 05:53:15;;;;;;;13.43;5.85;;;0.40;99.90;;;;;;4977243;28;20138;-85
2022/03/09 05:55:41;;;;;;;13.27;5.63;;;0.30;99.90;;;;;;4971016;28;20073;-82
2022/03/09 05:58:06;;;;;;;11.35;5.65;;;0.80;99.90;;;;;;4988889;28;20057;-85
2022/03/09 06:00:32;;;;;;;16.90;6.05;;;0.30;99.90;;;;;;4991327;28;20080;-85
2022/03/09 06:02:58;;;;;;;15.25;5.80;;;0.30;99.90;;;;;;4990453;28;20062;-85
2022/03/09 06:05:23;;;;;;;16.25;6.05;;;0.30;99.90;;;;;;4991939;28;20046;-85
2022/03/09 06:07:50;;;;;;;13.90;5.70;;;0.30;99.90;;;;;;4962273;28;20050;-84
2022/03/09 06:10:15;;;;;;;;;;;0.20;99.90;;;;;;4990153;28;20046;-84
2022/03/09 06:12:41;;;;;;;13.63;5.72;;;0.20;99.90;;;;;;4990379;28;19921;-83
2022/03/09 06:15:07;;;;;;;15.35;5.78;;;0.20;99.90;;;;;;4986687;28;20045;-85
2022/03/09 06:17:43;;;;;;;13.65;6.20;;;0.20;99.90;;;;;;4956067;28;20503;-85
2022/03/09 06:20:09;;;;;;;13.38;5.90;;;0.20;99.90;;;;;;4974793;28;20051;-84
2022/03/09 06:22:35;;;;;;;13.75;6.07;;;0.20;99.90;;;;;;4973933;28;20050;-86
2022/03/09 06:25:01;;;;;;;15.02;6.45;;;0.20;99.90;;;;;;4972798;28;20047;-86
2022/03/09 06:27:26;;;;;;;14.23;6.43;;;0.20;99.90;;;;;;4973949;28;20424;-86
2022/03/09 06:29:54;;;;;;;11.85;6.25;;;0.20;99.90;;;;;;4971006;28;20050;-85
2022/03/09 06:32:19;;;;;;;11.52;6.22;;;0.20;99.90;;;;;;4971881;28;20148;-85
2022/03/09 06:34:45;;;;;;;14.27;6.20;;;0.30;99.90;;;;;;4955287;28;20667;-84
2022/03/09 06:37:11;;;;;;;13.77;6.50;;;0.60;99.90;;;;;;4955043;28;20039;-85
2022/03/09 06:39:36;;;;;;;13.90;5.80;;;0.30;99.90;;;;;;4955726;28;20109;-83
2022/03/09 06:42:02;;;;;;;14.07;6.25;;;0.40;99.90;;;;;;4957367;28;20054;-83
2022/03/09 06:44:28;;;;;;;13.65;6.07;;;0.40;99.90;;;;;;4990168;28;20045;-85
2022/03/09 06:46:54;;;;;;;11.82;6.10;;;1.00;99.90;;;;;;4965893;28;20058;-83
2022/03/09 06:49:20;;;;;;;12.35;6.07;;;0.50;99.90;;;;;;4971598;28;20054;-85
2022/03/09 06:51:45;;;;;;;14.05;6.55;;;0.50;99.90;;;;;;4957685;28;20089;-82
2022/03/09 06:54:11;;;;;;;13.40;6.22;;;0.60;99.90;;;;;;4974406;28;20507;-85
2022/03/09 06:56:37;;;;;;;12.73;5.75;;;0.60;99.90;;;;;;4973610;28;20488;-84
2022/03/09 06:59:03;;;;;;;;;;;1.00;99.90;;;;;;4975879;28;20046;-85
2022/03/09 07:01:29;;;;;;;12.90;6.30;;;0.70;99.90;;;;;;4954823;28;20000;-85
2022/03/09 07:03:55;;;;;;;15.52;6.30;;;0.70;99.90;;;;;;4954740;28;20055;-85
2022/03/09 07:06:20;;;;;;;15.02;7.75;;;0.70;99.90;;;;;;4955339;28;20055;-85
2022/03/09 07:08:46;;;;;;;13.23;5.82;;;0.70;99.90;;;;;;4970547;28;20062;-83
2022/03/09 07:11:12;;;;;;;17.30;6.55;;;1.30;99.90;;;;;;4957160;28;20072;-85
2022/03/09 07:13:37;;;;;;;15.45;6.40;;;0.90;99.90;;;;;;4983982;28;20043;-85
2022/03/09 07:16:03;;;;;;;13.70;5.88;;;0.90;99.90;;;;;;4970227;28;20161;-85
2022/03/09 07:18:29;;;;;;;13.80;5.88;;;0.90;99.90;;;;;;4955162;28;20408;-85
2022/03/09 07:20:54;;;;;;;12.73;6.75;;;1.00;99.90;;;;;;4970517;28;20042;-84
2022/03/09 07:23:20;;;;;;;16.27;6.53;;;1.30;99.90;;;;;;4973192;28;20522;-86
2022/03/09 07:25:46;;;;;;;13.30;6.03;;;1.10;99.90;;;;;;4974188;28;20046;-83
2022/03/09 07:28:12;;;;;;;12.02;5.93;;;1.90;99.90;;;;;;4989199;28;20078;-86
2022/03/09 07:30:37;;;;;;;11.38;5.82;;;1.20;99.90;;;;;;4973720;28;20047;-85
2022/03/09 07:33:03;;;;;;;14.80;6.53;;;1.20;99.90;;;;;;4972040;28;20081;-86
2022/03/09 07:35:28;;;;;;;13.75;6.43;;;1.30;99.90;;;;;;4973881;28;20054;-85
2022/03/09 07:37:54;;;;;;;17.85;6.60;;;1.30;99.90;;;;;;4972819;28;20420;-85
2022/03/09 07:40:21;;;;;;;12.85;5.70;;;1.40;99.90;;;;;;4989241;28;20050;-84
2022/03/09 07:42:47;;;;;;;13.13;6.10;;;1.50;99.90;;;;;;4973170;28;20057;-86
2022/03/09 07:45:12;;;;;;;14.20;6.63;;;1.60;99.90;;;;;;4972843;28;20054;-84
2022/03/09 07:47:38;;;;;;;16.08;6.28;;;1.60;99.90;;;;;;4973806;28;20069;-84
2022/03/09 07:50:07;;;;;;;14.07;6.63;;;1.70;99.90;;;;;;4945912;28;20051;-84
2022/03/09 07:52:34;;;;;;;11.75;6.22;;;1.80;99.90;;;;;;4953343;28;20063;-83
2022/03/09 07:55:00;;;;;;;13.77;6.65;;;1.80;99.90;;;;;;4953649;28;20214;-84
2022/03/09 07:57:25;;;;;;;12.55;5.72;;;1.90;99.90;;;;;;4987874;28;20559;-84
2022/03/09 07:59:51;;;;;;;11.73;5.78;;;2.40;99.90;;;;;;4972973;28;20070;-83
2022/03/09 08:02:17;;;;;;;16.10;7.05;;;2.00;99.90;;;;;;4989549;28;20054;-84
2022/03/09 08:04:43;;;;;;;14.57;6.15;;;2.00;99.90;;;;;;4974542;28;20057;-84
2022/03/09 08:07:08;;;;;;;13.52;6.60;;;2.10;99.90;;;;;;4972837;28;20115;-83
2022/03/09 08:09:34;;;;;;;14.52;6.75;;;2.10;99.90;;;;;;4973480;28;20061;-84
2022/03/09 08:12:00;;;;;;;17.25;6.80;;;2.60;99.90;;;;;;4988108;28;20400;-84
2022/03/09 08:14:26;;;;;;;11.65;6.35;;;2.60;99.90;;;;;;4957169;28;20046;-85
2022/03/09 08:16:51;;;;;;;15.40;6.70;;;2.60;99.90;;;;;;4989720;28;20047;-82
2022/03/09 08:19:17;;;;;;;14.32;7.00;;;2.20;99.90;;;;;;4957501;28;20054;-83
2022/03/09 08:21:42;;;;;;;14.65;7.07;;;2.30;99.90;;;;;;4972756;28;20471;-84
2022/03/09 08:24:08;;;;;;;15.05;6.40;;;2.30;99.90;;;;;;4983100;28;20053;-85
2022/03/09 08:26:34;;;;;;;12.88;6.40;;;2.60;99.90;;;;;;4973089;28;20313;-83
2022/03/09 08:29:00;;;;;;;14.07;6.30;;;2.30;99.90;;;;;;4972473;28;21320;-85
2022/03/09 08:31:26;;;;;;;14.18;6.22;;;2.40;99.90;;;;;;4955733;28;20078;-82
2022/03/09 08:33:52;;;;;;;13.02;6.30;;;2.40;99.90;;;;;;4989539;28;20093;-83
2022/03/09 08:36:18;;;;;;;12.57;6.38;;;2.50;99.90;;;;;;4973028;28;20056;-84
2022/03/09 08:38:43;;;;;;;11.95;5.90;;;2.60;99.90;;;;;;4988173;28;20069;-83
2022/03/09 08:41:09;;;;;;;11.40;5.70;;;2.70;99.90;;;;;;4972140;28;20072;-84
2022/03/09 08:43:35;;;;;;;13.23;5.70;;;2.80;99.90;;;;;;4966764;28;20054;-85
2022/03/09 08:46:01;;;;;;;10.73;5.90;;;2.80;99.90;;;;;;4976748;28;20059;-84
2022/03/09 08:48:26;;;;;;;14.02;6.45;;;2.90;99.90;;;;;;4980148;28;20050;-85
2022/03/09 08:50:53;;;;;;;12.52;5.65;;;3.00;99.90;;;;;;4955828;28;20138;-84
2022/03/09 08:53:20;;;;;;;12.60;6.00;;;3.10;99.90;;;;;;4973163;28;20082;-84
2022/03/09 08:55:46;;;;;;;13.77;6.60;;;3.20;99.90;;;;;;4972920;28;20381;-84
2022/03/09 08:58:12;;;;;;;11.55;5.80;;;3.50;99.90;;;;;;4970749;28;20058;-84
2022/03/09 09:00:38;;;;;;;12.13;5.45;;;3.40;99.90;;;;;;4979182;28;20150;-85
2022/03/09 09:03:04;;;;;;;11.82;5.53;;;3.50;99.90;;;;;;4966771;28;20053;-84
2022/03/09 09:05:30;;;;;;;;;;;3.60;99.90;;;;;;4975045;28;20492;-85
2022/03/09 09:07:55;;;;;;;13.05;5.68;;;3.70;99.90;;;;;;4961017;28;19929;-83
2022/03/09 09:10:22;;;;;;;11.45;5.53;;;3.80;99.90;;;;;;4969269;28;20057;-85
2022/03/09 09:12:50;;;;;;;11.27;5.75;;;4.00;99.90;;;;;;4983442;28;20042;-85
2022/03/09 09:15:16;;;;;;;13.32;6.47;;;4.10;99.90;;;;;;4941765;28;20057;-83
2022/03/09 09:17:42;;;;;;;;;;;4.10;99.90;;;;;;4955824;28;21946;-85
2022/03/09 09:20:09;;;;;;;12.38;5.78;;;4.60;99.90;;;;;;4978744;28;19922;-83
2022/03/09 09:22:35;;;;;;;11.00;5.93;;;4.40;99.90;;;;;;4954307;28;20065;-90
2022/03/09 09:25:01;;;;;;;11.05;5.88;;;4.50;99.90;;;;;;4987529;28;20054;-89
2022/03/09 09:27:27;;;;;;;13.43;6.03;;;4.60;99.90;;;;;;4972479;28;20077;-86
2022/03/09 09:29:53;;;;;;;15.10;5.10;;;4.80;99.90;;;;;;4974571;28;20054;-84
2022/03/09 09:32:19;;;;;;;11.55;6.00;;;4.70;99.40;;;;;;4969530;28;20647;-83
2022/03/09 09:34:45;;;;;;;10.85;5.60;;;4.80;97.90;;;;;;4990848;28;20046;-87
2022/03/09 09:37:11;;;;;;;11.57;5.45;;;4.90;97.50;;;;;;4975973;28;20051;-81
2022/03/09 09:39:37;;;;;;;11.55;5.80;;;5.00;96.40;;;;;;4964701;28;20042;-88
2022/03/09 09:42:03;;;;;;;12.27;5.60;;;5.10;96.00;;;;;;4958186;28;20061;-88
2022/03/09 09:44:30;;;;;;;;;;;5.10;95.70;;;;;;4971633;28;20090;-87
2022/03/09 09:46:56;;;;;;;12.73;5.20;;;5.20;95.10;;;;;;4964854;28;19978;-90
2022/03/09 09:49:24;;;;;;;10.93;5.68;;;5.50;95.00;;;;;;4980362;28;20150;-89
2022/03/09 09:51:51;;;;;;;10.07;5.65;;;5.40;94.40;;;;;;4985614;28;20069;-84
2022/03/09 09:54:18;;;;;;;10.43;5.15;;;5.50;93.80;;;;;;4979771;28;20042;-83
2022/03/09 09:56:44;;;;;;;11.05;5.35;;;5.60;92.90;;;;;;4981986;28;20120;-86
2022/03/09 09:59:11;;;;;;;11.40;5.72;;;5.80;91.90;;;;;;4987746;28;20121;-84
2022/03/09 10:01:40;;;;;;;13.82;5.97;;;5.90;91.70;;;;;;4986312;28;20054;-84
2022/03/09 10:04:07;;;;;;;12.70;5.90;;;5.90;91.70;;;;;;4966254;28;20055;-89
2022/03/09 10:06:34;;;;;;;13.82;6.03;;;6.00;91.30;;;;;;4973186;28;20132;-84
2022/03/09 10:09:04;;;;;;;;;;;6.10;90.60;;;;;;4975509;28;20135;-85
2022/03/09 10:11:50;;;;;;;13.00;6.40;;;6.20;90.40;;;;;;4988780;28;20402;-81
2022/03/09 10:14:17;;;;;;;11.98;5.45;;;6.30;89.20;;;;;;4989297;28;20385;-89
2022/03/09 10:17:07;;;;;;;15.07;6.35;;;6.40;87.80;;;;;;4988597;28;20047;-86
2022/03/09 10:19:36;;;;;;;14.40;6.03;;;6.50;88.30;;;;;;4984266;28;20046;-85
2022/03/09 10:22:34;;;;;;;12.82;6.43;;;6.60;87.00;;;;;;4973803;28;20400;-88
2022/03/09 10:25:10;;;;;;;9.25;5.20;;;6.70;84.80;;;;;;4987353;28;20055;-84
2022/03/09 10:27:48;;;;;;;13.07;5.78;;;6.90;83.10;;;;;;4985249;28;20043;-88
2022/03/09 10:30:19;;;;;;;10.95;6.40;;;7.00;83.10;;;;;;4983395;28;20047;-85
2022/03/09 10:32:48;;;;;;;12.02;5.90;;;7.00;83.10;;;;;;4985291;28;20084;-86
2022/03/09 10:35:19;;;;;;;11.63;5.70;;;7.30;81.40;;;;;;4988952;28;20042;-83
2022/03/09 10:37:47;;;;;;;13.65;5.95;;;7.20;79.70;;;;;;4975543;28;20097;-86
2022/03/09 10:40:14;;;;;;;14.30;6.35;;;7.40;80.10;;;;;;4990703;28;20053;-86
2022/03/09 10:42:40;;;;;;;10.65;5.70;;;7.40;80.10;;;;;;4987698;28;20042;-90
2022/03/09 10:45:08;;;;;;;14.07;5.95;;;7.50;79.50;;;;;;4987461;28;20054;-84
2022/03/09 10:47:45;;;;;;;13.27;6.28;;;7.60;79.20;;;;;;4990585;28;20046;-90
2022/03/09 10:50:16;;;;;;;10.93;6.18;;;7.80;78.00;;;;;;4973868;28;20051;-88
2022/03/09 10:52:49;;;;;;;13.20;6.07;;;7.80;77.80;;;;;;4969978;28;20138;-87
2022/03/09 10:55:31;;;;;;;13.18;6.32;;;7.90;77.00;;;;;;4987793;28;20129;-84
2022/03/09 10:58:21;;;;;;;13.55;6.10;;;8.00;74.40;;;;;;4963862;28;20587;-85
2022/03/09 11:00:52;;;;;;;12.00;6.55;;;8.00;74.60;;;;;;4973385;28;20054;-86
2022/03/09 11:03:21;;;;;;;13.65;6.90;;;8.10;77.50;;;;;;4971445;28;20043;-85
2022/03/09 11:05:54;;;;;;;13.27;7.25;;;8.30;77.50;;;;;;4972618;28;20038;-87
2022/03/09 11:08:31;;;;;;;12.43;6.25;;;8.40;75.30;;;;;;4986019;28;20131;-86
2022/03/09 11:11:01;;;;;;;12.48;5.90;;;8.50;74.00;;;;;;4972149;28;20073;-87
2022/03/09 11:13:29;;;;;;;12.20;6.38;;;8.60;73.00;;;;;;4970233;28;20106;-88
2022/03/09 11:15:55;;;;;;;13.63;6.82;;;8.80;72.30;;;;;;4969707;28;20066;-89
2022/03/09 11:18:24;;;;;;;12.88;6.43;;;8.90;72.60;;;;;;4969838;28;20039;-88
2022/03/09 11:20:56;;;;;;;11.85;6.53;;;9.00;73.20;;;;;;4971356;28;20047;-88
2022/03/09 11:23:23;;;;;;;13.15;6.47;;;9.10;71.80;;;;;;4968695;28;20046;-86
2022/03/09 11:26:03;;;;;;;13.48;6.15;;;9.20;70.90;;;;;;4973290;28;20100;-85
2022/03/09 11:28:41;;;;;;;11.68;5.68;;;9.30;70.20;;;;;;4984218;28;20234;-86
2022/03/09 11:31:12;;;;;;;11.98;6.38;;;9.40;69.90;;;;;;4972039;28;20106;-88
2022/03/09 11:33:42;;;;;;;13.85;6.60;;;9.60;69.70;;;;;;4958406;28;20054;-86
2022/03/09 11:36:23;;;;;;;12.73;6.60;;;9.60;68.80;;;;;;4971949;28;20046;-85
2022/03/09 11:38:53;;;;;;;13.93;6.65;;;9.80;68.30;;;;;;4977531;28;20049;-88
2022/03/09 11:41:21;;;;;;;10.20;5.88;;;10.00;67.50;;;;;;4975901;28;20295;-90
2022/03/09 11:43:48;;;;;;;11.68;6.35;;;10.10;66.20;;;;;;4970048;28;20118;-88
2022/03/09 11:46:14;;;;;;;15.73;7.15;;;10.30;66.80;;;;;;4969483;28;20158;-89
2022/03/09 11:48:56;;;;;;;13.95;7.22;;;10.50;65.90;;;;;;4954960;28;20558;-89
2022/03/09 11:51:29;;;;;;;14.00;6.63;;;10.70;65.20;;;;;;4994935;28;20492;-87
2022/03/09 11:53:57;;;;;;;11.68;6.38;;;10.80;62.30;;;;;;4967512;28;20056;-87
2022/03/09 11:56:32;;;;;;;11.07;6.40;;;11.00;63.40;;;;;;4975251;28;20129;-87
2022/03/09 11:59:28;;;;;;;11.30;6.35;;;11.30;63.40;;;;;;4972564;28;20117;-86
2022/03/09 12:02:07;;;;;;;14.30;6.85;;;11.60;61.90;;;;;;4976223;28;20054;-88
2022/03/09 12:04:53;;;;;;;12.07;7.03;;;11.90;64.60;;;;;;4972360;28;20050;-84
2022/03/09 12:07:29;;;;;;;11.93;6.85;;;12.10;63.10;;;;;;4972448;28;20618;-89
2022/03/09 12:09:55;;;;;;;15.00;6.20;;;12.30;63.10;;;;;;4975552;28;20043;-88
2022/03/09 12:12:22;;;;;;;12.35;7.18;;;12.50;64.00;;;;;;4978857;28;20058;-85
2022/03/09 12:15:05;;;;;;;;;;;12.70;62.80;;;;;;4992511;28;20042;-83
2022/03/09 12:17:39;;;;;;;11.30;6.75;;;12.90;62.10;;;;;;4969614;28;20159;-88
2022/03/09 12:20:23;;;;;;;14.38;7.05;;;13.00;62.00;;;;;;4988705;28;20503;-84
2022/03/09 12:23:03;;;;;;;11.50;6.70;;;13.20;59.20;;;;;;4972916;28;20054;-85
2022/03/09 12:25:46;;;;;;;11.68;6.57;;;13.30;58.90;;;;;;4983560;28;20053;-84
2022/03/09 12:28:23;;;;;;;13.57;7.45;;;13.40;58.20;;;;;;4977880;28;20047;-85
2022/03/09 12:30:51;;;;;;;12.05;7.38;;;13.60;56.40;;;;;;4973617;28;20051;-82
2022/03/09 12:33:31;;;;;;;15.15;7.43;;;13.70;57.20;;;;;;4957329;28;20059;-84
2022/03/09 12:36:14;;;;;;;12.88;7.20;;;13.90;55.40;;;;;;4973946;28;20531;-86
2022/03/09 12:38:45;;;;;;;10.65;7.00;;;14.00;55.50;;;;;;4961016;28;20097;-84
2022/03/09 12:41:32;;;;;;;11.45;6.85;;;14.20;55.20;;;;;;4980830;28;20058;-82
2022/03/09 12:44:02;;;;;;;;;;;14.30;51.20;;;;;;4975660;28;20085;-85
2022/03/09 12:46:29;;;;;;;9.98;6.70;;;14.40;52.30;;;;;;4973086;28;19922;-84
2022/03/09 12:49:15;;;;;;;11.30;7.22;;;14.50;54.60;;;;;;4973532;28;20061;-87
2022/03/09 12:51:56;;;;;;;12.05;7.30;;;14.70;53.40;;;;;;4987949;28;20058;-88
2022/03/09 12:54:39;;;;;;;13.43;7.05;;;15.00;52.40;;;;;;4981578;28;20419;-91
2022/03/09 12:57:25;;;;;;;11.73;7.40;;;15.10;51.80;;;;;;4973417;28;20051;-88